Terminal Aerodrome Forecast
Issued by NWS

Home | Current Version | Previous Version | Graphics & Text | Print | Product List | Glossary On
Versions: 1 2 3 4 5 6 7 8 9 10 11 12 13 14
794
FTUS43 KTOP 182336
TAFFOE
TAF
KFOE 182336Z 1900/1924 16009KT P6SM FEW250
     FM191900 20011KT P6SM FEW200=

USA.gov is the U.S. government's official web portal to all federal, state and local government web resources and services.